NEODyS-2

Near Earth Objects - Dynamic Site
NEODyS ∴ Observatories ∴ Site 691 ∴ Obs & residuals
Contact »
691  ▹ 
OBSERVATIONS AND RESIDUALS

691-Steward Observatory, Kitt Peak-Spacewatch

Detections | Residuals | Detections & Residuals

[1-200] [201-400] [401-600] [601-800] [801-1000] [1001-1200] [1201-1400] [1401-1600] [1601-1800] [1801-2000] [2001-2200] [2201-2400] [2401-2600] [2601-2800] [2801-3000] [3001-3200] [3201-3400] [3401-3600] [3601-3800] [3801-4000] [4001-4200] [4201-4400] [4401-4600] [4601-4800] [4801-5000] [5001-5200] [5201-5400] [5401-5600] [5601-5800] [5801-6000] [6001-6200] [6201-6400] [6401-6600] [6601-6800] [6801-7000] [7001-7200] [7201-7400] [7401-7600] [7601-7800] [7801-8000] [8001-8200] [8201-8400] [8401-8600] [8601-8800] [8801-9000] [9001-9200] [9201-9400] [9401-9600] [9601-9800] [9801-10000] [10001-10200] [10201-10400] [10401-10600] [10601-10800] [10801-11000] [11001-11200] [11201-11400] [11401-11600] [11601-11800] [11801-12000] [12001-12200] [12201-12400] [12401-12600] [12601-12800] [12801-13000] [13001-13200] [13201-13400] [13401-13600] [13601-13800] [13801-14000] [14001-14200] [14201-14400] [14401-14600] [14601-14800] [14801-15000] [15001-15200] [15201-15400] [15401-15600] [15601-15800] [15801-16000] [16001-16200] [16201-16400] [16401-16600] [16601-16800] [16801-17000] [17001-17200] [17201-17400] [17401-17600] [17601-17800] [17801-18000] [18001-18200] [18201-18400] [18401-18600] [18601-18800] [18801-19000] [19001-19200] [19201-19400] [19401-19600] [19601-19800] [19801-20000] [20001-20200] [20201-20400] [20401-20600] [20601-20800] [20801-21000] [21001-21200] [21201-21400] [21401-21600] [21601-21800] [21801-22000] [22001-22200] [22201-22400] [22401-22600] [22601-22800] [22801-23000] [23001-23200] [23201-23400] [23401-23600] [23601-23800] [23801-24000] [24001-24200] [24201-24400] [24401-24600] [24601-24800] [24801-25000] [25001-25200] [25201-25400] [25401-25600] [25601-25800] [25801-26000] [26001-26200] [26201-26400] [26401-26600] [26601-26800] [26801-27000] [27001-27200] [27201-27400] [27401-27600] [27601-27800] [27801-28000] [28001-28200] [28201-28400] [28401-28600] [28601-28800] [28801-29000] [29001-29200] [29201-29400] [29401-29600] [29601-29800] [29801-30000] [30001-30200] [30201-30400] [30401-30600] [30601-30800] [30801-31000] [31001-31200] [31201-31400] [31401-31600] [31601-31800] [31801-32000] [32001-32200] [32201-32400] [32401-32600] [32601-32800] [32801-33000] [33001-33200] [33201-33400] [33401-33600] [33601-33800] [33801-34000] [34001-34200] [34201-34400] [34401-34600] [34601-34800] [34801-35000] [35001-35200] [35201-35400] [35401-35600] [35601-35800] [35801-36000] [36001-36200] [36201-36400] [36401-36600] [36601-36800] [36801-37000] [37001-37200] [37201-37400] [37401-37600] [37601-37800] [37801-38000] [38001-38200] [38201-38400] [38401-38600] [38601-38800] [38801-39000] [39001-39200] [39201-39400] [39401-39600] [39601-39800] [39801-40000] [40001-40200] [40201-40400] [40401-40600] [40601-40800] [40801-41000] [41001-41200] [41201-41400] [41401-41600] [41601-41800] [41801-42000] [42001-42200] [42201-42400] [42401-42600] [42601-42800] [42801-43000] [43001-43200] [43201-43400] [43401-43600] [43601-43800] [43801-44000] [44001-44200] [44201-44400] [44401-44600] [44601-44800] [44801-45000] [45001-45200] [45201-45400] [45401-45600] [45601-45800] [45801-46000] [46001-46200] [46201-46400] [46401-46600] [46601-46800] [46801-47000] [47001-47200] [47201-47400] [47401-47600] [47601-47800] [47801-48000] [48001-48200] [48201-48400] [48401-48600] [48601-48800] [48801-49000] [49001-49200] [49201-49400] [49401-49600] [49601-49800] [49801-50000] [50001-50200] [50201-50388]

Designation T Tech N Date Right Ascension Declination Apparent Magnitude Star Catalog Site code χ Used A Used M
yr-mo-day precision hr:min:sec precision rms F bias residual deg min sec precision rms F bias residual mag/col rms residual
2018TN6 O C K 2018-11-29.34251 1.000E-05 03:07:53.980 1.500E-01 0.500 F -0.216 0.114 +04° 44' 33.50" 1.000E-01 0.500 F 0.277 0.094 o 691 0.30 Yes No
2018TN6 O C K 2018-11-29.35357 1.000E-05 03:07:53.780 1.500E-01 0.500 F -0.216 0.221 +04° 44' 23.30" 1.000E-01 0.500 F 0.277 -0.100 21.7 R 0.70 0.22 o 691 0.50 Yes Yes
2011HE24 O C K 2018-11-29.36497 1.000E-05 04:57:38.760 1.500E-01 0.500 F -0.147 -0.138 +23° 28' 08.70" 1.000E-01 0.500 F 0.159 0.039 21.7 R 0.70 0.87 o 691 0.29 Yes Yes
2011HE24 O C K 2018-11-29.37087 1.000E-05 04:57:38.160 1.500E-01 0.500 F -0.147 -0.067 +23° 28' 07.20" 1.000E-01 0.500 F 0.159 -0.057 21.8 R 0.70 0.97 o 691 0.18 Yes Yes
2011HE24 O C K 2018-11-29.37678 1.000E-05 04:57:37.530 1.500E-01 0.500 F -0.147 -0.397 +23° 28' 05.60" 1.000E-01 0.500 F 0.159 -0.246 21.3 R 0.70 0.47 o 691 0.95 Yes Yes
2018VZ8 O C K 2018-11-29.38835 1.000E-05 03:46:49.240 1.500E-01 0.500 F -0.259 -0.237 +23° 34' 51.80" 1.000E-01 0.500 F 0.383 0.277 20.9 R 0.70 0.07 o 691 0.75 Yes Yes
2018VZ8 O C K 2018-11-29.39481 1.000E-05 03:46:49.140 1.500E-01 0.500 F -0.259 0.173 +23° 35' 00.50" 1.000E-01 0.500 F 0.383 0.217 21.1 R 0.70 0.27 o 691 0.57 Yes Yes
2018VZ8 O C K 2018-11-29.40127 1.000E-05 03:46:49.000 1.500E-01 0.500 F -0.259 0.008 +23° 35' 09.00" 1.000E-01 0.500 F 0.383 -0.031 21.2 R 0.70 0.37 o 691 0.07 Yes Yes
2018VX6 O C 2018-11-29.40973 1.000E-05 04:08:55.460 1.500E-01 0.500 F -0.172 0.154 -03° 26' 01.60" 1.000E-01 0.500 F 0.150 0.202 18.1 R 0.70 -0.75 o 691 0.52 Yes Yes
2018VX6 O C 2018-11-29.41181 1.000E-05 04:08:55.890 1.500E-01 0.500 F -0.172 0.034 -03° 26' 18.80" 1.000E-01 0.500 F 0.150 -0.221 18.8 R 0.70 -0.05 o 691 0.46 Yes Yes
2018VX6 O C 2018-11-29.41702 1.000E-05 04:08:57.000 1.500E-01 0.500 F -0.172 0.172 -03° 27' 00.70" 1.000E-01 0.500 F 0.150 -0.080 19.0 R 0.70 0.15 o 691 0.39 Yes Yes
2018VJ5 O C K 2018-11-29.43535 1.000E-05 04:55:02.960 1.500E-01 0.500 F 0.004 0.128 +09° 57' 13.70" 1.000E-01 0.500 F 0.080 -0.045 20.8 R 0.70 0.29 o 691 0.28 Yes Yes
2018VJ5 O C K 2018-11-29.44008 1.000E-05 04:55:03.470 1.500E-01 0.500 F 0.004 0.298 +09° 56' 59.00" 1.000E-01 0.500 F 0.080 -0.099 21.1 R 0.70 0.59 o 691 0.65 Yes Yes
2018VJ5 O C K 2018-11-29.44480 1.000E-05 04:55:03.930 1.500E-01 0.500 F 0.004 -0.276 +09° 56' 44.70" 1.000E-01 0.500 F 0.080 0.217 20.8 R 0.70 0.29 o 691 0.73 Yes Yes
2018VN3 O C 2018-11-29.45069 1.000E-05 05:00:22.740 1.500E-01 0.500 F -0.182 -0.040 +03° 45' 18.10" 1.000E-01 0.500 F 0.001 -0.044 18.7 R 0.70 0.05 o 691 0.12 Yes Yes
2018VN3 O C 2018-11-29.45306 1.000E-05 05:00:22.860 1.500E-01 0.500 F -0.182 -0.007 +03° 45' 08.00" 1.000E-01 0.500 F 0.001 0.283 18.7 R 0.70 0.05 o 691 0.58 Yes Yes
2018VN3 O C 2018-11-29.45660 1.000E-05 05:00:23.030 1.500E-01 0.500 F -0.182 -0.106 +03° 44' 52.30" 1.000E-01 0.500 F 0.001 0.159 18.6 R 0.70 -0.05 o 691 0.39 Yes Yes
2018WN2 O C H 2018-11-29.51672 1.000E-05 04:44:08.090 1.500E-01 0.500 F -0.124 -0.369 +30° 32' 49.20" 1.000E-01 0.500 F 0.326 -0.395 20.2 R 0.70 0.48 o 691 1.09 Yes Yes
2018WN2 O C H 2018-11-29.51874 1.000E-05 04:44:08.050 1.500E-01 0.500 F -0.124 0.048 +30° 32' 46.60" 1.000E-01 0.500 F 0.326 -0.531 20.4 R 0.70 0.68 o 691 1.08 Yes Yes
2018WN2 O C H 2018-11-29.52075 1.000E-05 04:44:08.000 1.500E-01 0.500 F -0.124 0.328 +30° 32' 44.40" 1.000E-01 0.500 F 0.326 -0.278 20.2 R 0.70 0.48 o 691 0.87 Yes Yes
2016RH18 O C H 2018-11-29.52629 1.000E-05 06:54:44.530 1.500E-01 0.500 F -0.051 -0.210 +25° 42' 14.90" 1.000E-01 0.500 F 0.180 -0.112 19.8 R 0.70 0.70 o 691 0.48 Yes Yes
2016RH18 O C H 2018-11-29.52905 1.000E-05 06:54:44.790 1.500E-01 0.500 F -0.051 -0.119 +25° 42' 23.30" 1.000E-01 0.500 F 0.180 -0.030 19.4 R 0.70 0.30 o 691 0.25 Yes Yes
2016RH18 O C H 2018-11-29.53181 1.000E-05 06:54:45.030 1.500E-01 0.500 F -0.051 -0.307 +25° 42' 31.50" 1.000E-01 0.500 F 0.180 -0.143 20.1 R 0.70 1.00 o 691 0.68 Yes Yes
2018VE4 O C K 2018-11-29.53735 1.000E-05 05:35:05.420 1.500E-01 0.500 F -0.079 -0.016 +19° 08' 47.40" 1.000E-01 0.500 F 0.177 -0.133 19.0 R 0.70 0.23 o 691 0.28 Yes Yes
2018VE4 O C K 2018-11-29.54027 1.000E-05 05:35:08.120 1.500E-01 0.500 F -0.079 3.204 +19° 09' 07.20" 1.000E-01 0.500 F 0.177 -2.847 19.7 R 0.70 0.93 o 691 8.41 No Yes
2018VE4 O C K 2018-11-29.54319 1.000E-05 05:35:10.390 1.500E-01 0.500 F -0.079 0.267 +19° 09' 32.40" 1.000E-01 0.500 F 0.177 -0.151 18.7 R 0.70 -0.07 o 691 0.63 Yes Yes
2018RP8 O C K 2018-12-04.07123 1.000E-05 21:59:16.360 1.500E-01 0.500 F -0.082 0.105 +15° 37' 38.00" 1.000E-01 0.500 F 0.323 0.035 22.0 R 0.70 1.08 o 691 0.22 Yes Yes
2018RP8 O C K 2018-12-04.08185 1.000E-05 21:59:17.540 1.500E-01 0.500 F -0.082 0.026 +15° 37' 35.40" 1.000E-01 0.500 F 0.323 -0.147 21.5 R 0.70 0.58 o 691 0.30 Yes Yes
2018RP8 O C K 2018-12-04.09231 1.000E-05 21:59:18.710 1.500E-01 0.500 F -0.082 0.044 +15° 37' 33.00" 1.000E-01 0.500 F 0.323 -0.155 21.7 R 0.70 0.78 o 691 0.33 Yes Yes
2018TY2 O C K 2018-12-04.10203 1.000E-05 23:13:01.740 1.500E-01 0.500 F -0.195 0.016 +01° 52' 02.80" 1.000E-01 0.500 F 0.376 -0.174 20.8 R 0.70 -0.01 o 691 0.35 Yes Yes
2018UN1 O C 2018-12-04.10536 1.000E-05 23:06:14.550 1.500E-01 0.500 F -0.066 -0.106 -23° 36' 12.10" 1.000E-01 0.500 F 0.438 0.067 19.6 V 0.70 0.05 o 691 0.25 Yes Yes
2018UN1 O C 2018-12-04.10636 1.000E-05 23:06:14.140 1.500E-01 0.500 F -0.066 -0.036 -23° 36' 13.60" 1.000E-01 0.500 F 0.438 0.124 19.7 V 0.70 0.15 o 691 0.26 Yes Yes
2018TY2 O C K 2018-12-04.11001 1.000E-05 23:13:01.290 1.500E-01 0.500 F -0.195 0.357 +01° 51' 57.80" 1.000E-01 0.500 F 0.376 0.480 20.4 R 0.70 -0.41 o 691 1.21 Yes Yes
2018UN1 O C 2018-12-04.11317 1.000E-05 23:06:11.310 1.500E-01 0.500 F -0.066 -0.083 -23° 36' 23.90" 1.000E-01 0.500 F 0.438 0.418 20.1 V 0.70 0.55 o 691 0.86 Yes Yes
2018TY2 O C K 2018-12-04.11779 1.000E-05 23:13:00.840 1.500E-01 0.500 F -0.195 0.513 +01° 51' 51.90" 1.000E-01 0.500 F 0.376 0.093 20.9 R 0.70 0.09 o 691 1.05 Yes Yes
2016CX264 O C K 2018-12-04.12562 1.000E-05 23:31:50.620 1.500E-01 0.500 F -0.271 0.088 -02° 26' 58.30" 1.000E-01 0.500 F 0.379 0.442 20.7 R 0.70 0.01 o 691 0.91 Yes Yes
2018TL2 O C K 2018-12-04.13074 1.000E-05 23:34:43.720 1.500E-01 0.500 F -0.066 -0.218 -08° 20' 52.50" 1.000E-01 0.500 F 0.192 0.389 20.6 R 0.70 -0.36 o 691 0.90 Yes Yes
2016CX264 O C K 2018-12-04.13351 1.000E-05 23:31:51.900 1.500E-01 0.500 F -0.271 -0.120 -02° 26' 40.30" 1.000E-01 0.500 F 0.379 0.237 20.5 R 0.70 -0.19 o 691 0.53 Yes Yes
2018TL2 O C K 2018-12-04.13832 1.000E-05 23:34:44.380 1.500E-01 0.500 F -0.066 0.071 -08° 20' 46.60" 1.000E-01 0.500 F 0.192 0.108 21.2 R 0.70 0.24 o 691 0.26 Yes Yes
2016CX264 O C K 2018-12-04.14110 1.000E-05 23:31:53.180 1.500E-01 0.500 F -0.271 0.402 -02° 26' 23.10" 1.000E-01 0.500 F 0.379 -0.075 21.3 R 0.70 0.61 o 691 0.83 Yes Yes
2018TL2 O C K 2018-12-04.14590 1.000E-05 23:34:45.040 1.500E-01 0.500 F -0.066 0.349 -08° 20' 40.30" 1.000E-01 0.500 F 0.192 0.222 21.5 R 0.70 0.54 o 691 0.84 Yes Yes
2018LB1 O C 2018-12-04.15220 1.000E-05 00:09:09.310 1.500E-01 0.500 F -0.233 -0.697 +03° 50' 26.50" 1.000E-01 0.500 F 0.323 0.365 20.7 V 0.70 -0.60 o 691 1.59 Yes Yes
2018LB1 O C 2018-12-04.15346 1.000E-05 00:09:09.670 1.500E-01 0.500 F -0.233 0.284 +03° 50' 28.20" 1.000E-01 0.500 F 0.323 0.277 20.6 V 0.70 -0.70 o 691 0.81 Yes Yes
2018LB1 O C 2018-12-04.15473 1.000E-05 00:09:09.910 1.500E-01 0.500 F -0.233 -0.567 +03° 50' 29.60" 1.000E-01 0.500 F 0.323 -0.125 20.6 V 0.70 -0.70 o 691 1.19 Yes Yes
2018TK2 O C 2018-12-04.15718 1.000E-05 00:18:13.160 1.500E-01 0.500 F -0.226 -0.077 +06° 48' 45.10" 1.000E-01 0.500 F 0.248 -0.031 20.1 V 0.70 0.25 o 691 0.17 Yes Yes
2018TK2 O C 2018-12-04.16560 1.000E-05 00:18:15.390 1.500E-01 0.500 F -0.226 -0.030 +06° 49' 20.00" 1.000E-01 0.500 F 0.248 -0.315 19.8 V 0.70 -0.05 o 691 0.64 Yes Yes
2018TK2 O C 2018-12-04.17403 1.000E-05 00:18:17.570 1.500E-01 0.500 F -0.226 -0.810 +06° 49' 55.50" 1.000E-01 0.500 F 0.248 -0.031 20.3 V 0.70 0.45 o 691 1.65 Yes Yes
2018FJ4 O C K 2018-12-04.17548 1.000E-05 00:56:31.300 1.500E-01 0.500 F -0.112 -0.233 +05° 31' 31.00" 1.000E-01 0.500 F 0.284 -0.901 22.5 R 0.70 1.03 o 691 1.87 Yes Yes
2018VH1 O C K 2018-12-04.18337 1.000E-05 01:12:47.980 1.500E-01 0.500 F -0.240 0.519 +25° 22' 36.50" 1.000E-01 0.500 F 0.223 0.087 o 691 1.06 Yes No
2018FJ4 O C K 2018-12-04.19137 1.000E-05 00:56:33.340 1.500E-01 0.500 F -0.112 -0.006 +05° 31' 43.40" 1.000E-01 0.500 F 0.284 -0.104 o 691 0.21 Yes No
2018VH1 O C K 2018-12-04.19913 1.000E-05 01:12:46.550 1.500E-01 0.500 F -0.240 -0.216 +25° 22' 38.50" 1.000E-01 0.500 F 0.223 -0.026 21.8 R 0.70 0.38 o 691 0.44 Yes Yes
2018FJ4 O C K 2018-12-04.20644 1.000E-05 00:56:35.270 1.500E-01 0.500 F -0.112 0.107 +05° 31' 54.00" 1.000E-01 0.500 F 0.284 -0.494 22.7 R 0.70 1.23 o 691 1.02 Yes Yes
2018VH1 O C K 2018-12-04.21418 1.000E-05 01:12:45.250 1.500E-01 0.500 F -0.240 -0.064 +25° 22' 40.80" 1.000E-01 0.500 F 0.223 0.291 21.2 R 0.70 -0.22 o 691 0.60 Yes Yes
2010GT7 O C 2018-12-04.22341 1.000E-05 02:53:59.820 1.500E-01 0.500 F -0.246 -0.261 +07° 34' 41.60" 1.000E-01 0.500 F 0.261 -0.069 17.7 V 0.70 -0.02 o 691 0.54 Yes Yes
2018NU3 O C K 2018-12-04.22513 1.000E-05 03:28:16.890 1.500E-01 0.500 F -0.239 0.235 -06° 08' 04.80" 1.000E-01 0.500 F 0.027 0.063 20.5 R 0.70 -0.61 o 691 0.49 Yes Yes
2002XC91 O C K 2018-12-04.23287 1.000E-05 03:53:09.500 1.500E-01 0.500 F -0.325 -0.025 -28° 50' 41.60" 1.000E-01 0.500 F 0.227 0.068 17.1 R 0.70 -0.05 o 691 0.16 Yes Yes
2010GT7 O C 2018-12-04.23558 1.000E-05 02:53:56.540 1.500E-01 0.500 F -0.246 -0.215 +07° 34' 59.50" 1.000E-01 0.500 F 0.261 -0.082 17.8 V 0.70 0.08 o 691 0.46 Yes Yes
2018NU3 O C K 2018-12-04.23732 1.000E-05 03:28:16.680 1.500E-01 0.500 F -0.239 0.051 -06° 07' 48.60" 1.000E-01 0.500 F 0.027 -0.075 20.3 R 0.70 -0.81 o 691 0.19 Yes Yes
2002XC91 O C K 2018-12-04.24489 1.000E-05 03:53:08.520 1.500E-01 0.500 F -0.325 0.098 -28° 48' 07.30" 1.000E-01 0.500 F 0.227 0.006 17.2 R 0.70 0.05 o 691 0.20 Yes Yes
2010GT7 O C 2018-12-04.24759 1.000E-05 02:53:53.300 1.500E-01 0.500 F -0.246 -0.182 +07° 35' 17.10" 1.000E-01 0.500 F 0.261 -0.147 17.7 V 0.70 -0.02 o 691 0.47 Yes Yes
2018NU3 O C K 2018-12-04.24960 1.000E-05 03:28:16.500 1.500E-01 0.500 F -0.239 0.340 -06° 07' 31.80" 1.000E-01 0.500 F 0.027 0.259 20.8 R 0.70 -0.31 o 691 0.86 Yes Yes
2002XC91 O C K 2018-12-04.25716 1.000E-05 03:53:07.510 1.500E-01 0.500 F -0.325 0.115 -28° 45' 29.80" 1.000E-01 0.500 F 0.227 -0.055 17.3 R 0.70 0.15 o 691 0.26 Yes Yes
2018WW1 O C K 2018-12-04.26021 1.000E-05 03:39:53.380 1.500E-01 0.500 F -0.246 0.084 +09° 26' 33.70" 1.000E-01 0.500 F 0.271 0.080 20.1 R 0.70 -0.26 o 691 0.25 Yes Yes
2018WW1 O C K 2018-12-04.26425 1.000E-05 03:39:53.210 1.500E-01 0.500 F -0.246 -0.289 +09° 25' 50.90" 1.000E-01 0.500 F 0.271 -0.102 21.0 R 0.70 0.64 o 691 0.65 Yes Yes
2018VX6 O C K 2018-12-04.26695 1.000E-05 04:38:38.590 1.500E-01 0.500 F -0.205 -0.183 -19° 02' 13.40" 1.000E-01 0.500 F 0.040 0.148 18.2 R 0.70 -0.25 o 691 0.49 Yes Yes
2018WE1 O C K 2018-12-04.27046 1.000E-05 03:56:24.610 1.500E-01 0.750 F -0.171 0.050 +04° 56' 34.90" 1.000E-01 0.750 F 0.153 -0.143 o 691 0.20 Yes No
2018WW1 O C K 2018-12-04.27801 1.000E-05 03:39:52.710 1.500E-01 0.500 F -0.246 -0.423 +09° 23' 26.00" 1.000E-01 0.500 F 0.271 0.093 20.6 R 0.70 0.24 o 691 0.92 Yes Yes
2018VX6 O C K 2018-12-04.28293 1.000E-05 04:38:46.560 1.500E-01 0.500 F -0.205 0.084 -19° 06' 31.00" 1.000E-01 0.500 F 0.040 -0.126 18.2 R 0.70 -0.25 o 691 0.31 Yes Yes
2018WE1 O C K 2018-12-04.28629 1.000E-05 03:56:23.960 1.500E-01 0.750 F -0.171 -0.091 +04° 56' 33.80" 1.000E-01 0.750 F 0.153 0.256 o 691 0.36 Yes No
2018VX6 O C K 2018-12-04.29912 1.000E-05 04:38:54.630 1.500E-01 0.500 F -0.205 0.063 -19° 10' 51.70" 1.000E-01 0.500 F 0.040 0.041 18.4 R 0.70 -0.05 o 691 0.16 Yes Yes
2018WE1 O C K 2018-12-04.30251 1.000E-05 03:56:23.320 1.500E-01 0.750 F -0.171 0.002 +04° 56' 31.90" 1.000E-01 0.750 F 0.153 -0.021 21.9 R 0.70 1.21 o 691 0.03 Yes Yes
2018WE1 O C 2018-12-04.30923 1.000E-05 03:56:23.030 1.500E-01 0.750 F -0.171 -0.405 +04° 56' 30.30" 1.000E-01 0.750 F 0.153 -0.923 20.5 V 0.70 -0.59 o 691 1.35 Yes Yes
2018WE1 O C H 2018-12-04.30923 1.000E-05 03:56:23.040 1.500E-01 0.750 F -0.171 -0.256 +04° 56' 31.40" 1.000E-01 0.750 F 0.153 0.177 20.7 R 0.70 0.01 o 691 0.42 Yes Yes
2018VN5 O C H 2018-12-04.31166 1.000E-05 04:09:39.780 1.500E-01 0.500 F -0.143 -0.105 +07° 13' 37.90" 1.000E-01 0.500 F 0.254 0.109 20.5 R 0.70 0.12 o 691 0.30 Yes Yes
2018WP O C K 2018-12-04.31382 1.000E-05 03:55:50.600 1.500E-01 0.500 F -0.198 -0.061 +23° 13' 27.90" 1.000E-01 0.500 F 0.278 0.066 20.3 R 0.70 -0.56 o 691 0.18 Yes Yes
2018WE1 O C H 2018-12-04.31960 1.000E-05 03:56:22.660 1.500E-01 0.750 F -0.171 0.012 +04° 56' 30.20" 1.000E-01 0.750 F 0.153 0.083 21.1 R 0.70 0.41 o 691 0.11 Yes Yes
2018WE1 O C 2018-12-04.31960 1.000E-05 03:56:22.650 1.500E-01 0.750 F -0.171 -0.137 +04° 56' 30.10" 1.000E-01 0.750 F 0.153 -0.017 20.9 V 0.70 -0.19 o 691 0.18 Yes Yes
2018VN5 O C H 2018-12-04.32203 1.000E-05 04:09:39.160 1.500E-01 0.500 F -0.143 0.087 +07° 13' 15.30" 1.000E-01 0.500 F 0.254 0.011 20.8 R 0.70 0.42 o 691 0.18 Yes Yes
2018WP O C K 2018-12-04.32397 1.000E-05 03:55:48.920 1.500E-01 0.500 F -0.198 0.254 +23° 13' 28.20" 1.000E-01 0.500 F 0.278 0.187 21.0 R 0.70 0.13 o 691 0.65 Yes Yes
2018WE1 O C H 2018-12-04.32974 1.000E-05 03:56:22.260 1.500E-01 0.750 F -0.171 -0.310 +04° 56' 29.20" 1.000E-01 0.750 F 0.153 0.197 20.6 R 0.70 -0.10 o 691 0.49 Yes Yes
2018WE1 O C 2018-12-04.32974 1.000E-05 03:56:22.260 1.500E-01 0.750 F -0.171 -0.310 +04° 56' 29.00" 1.000E-01 0.750 F 0.153 -0.003 20.8 V 0.70 -0.30 o 691 0.41 Yes Yes
2018VN5 O C H 2018-12-04.33217 1.000E-05 04:09:38.540 1.500E-01 0.500 F -0.143 -0.040 +07° 12' 53.10" 1.000E-01 0.500 F 0.254 -0.148 20.6 R 0.70 0.22 o 691 0.31 Yes Yes
2018WP O C K 2018-12-04.33408 1.000E-05 03:55:47.200 1.500E-01 0.500 F -0.198 -0.102 +23° 13' 28.20" 1.000E-01 0.500 F 0.278 0.028 20.9 R 0.70 0.03 o 691 0.22 Yes Yes
2018VZ3 O C K 2018-12-04.34173 1.000E-05 05:09:41.250 1.500E-01 0.500 F -0.184 -0.551 -19° 35' 59.00" 1.000E-01 0.500 F -0.187 -0.302 o 691 1.41 Yes No
2018VS O C K 2018-12-04.34677 1.000E-05 05:23:12.240 1.500E-01 0.500 F -0.093 -0.330 -27° 08' 27.00" 1.000E-01 0.500 F 0.107 0.240 21.3 R 0.70 0.26 o 691 0.90 Yes Yes
2009BJ58 O C K 2018-12-04.35522 1.000E-05 05:30:28.910 1.500E-01 0.500 F -0.145 -0.031 +03° 01' 05.60" 1.000E-01 0.500 F 0.163 -0.088 21.3 R 0.70 0.18 o 691 0.19 Yes Yes
2018VZ3 O C K 2018-12-04.36082 1.000E-05 05:09:49.100 1.500E-01 0.500 F -0.184 0.299 -19° 37' 46.90" 1.000E-01 0.500 F -0.187 0.085 o 691 0.70 Yes No
2018VS O C K 2018-12-04.36584 1.000E-05 05:23:19.250 1.500E-01 0.500 F -0.093 -0.076 -27° 08' 18.00" 1.000E-01 0.500 F 0.107 -0.580 20.6 R 0.70 -0.44 o 691 1.29 Yes Yes
2009BJ58 O C K 2018-12-04.37413 1.000E-05 05:30:26.810 1.500E-01 0.500 F -0.145 -0.322 +03° 01' 00.30" 1.000E-01 0.500 F 0.163 0.133 21.6 R 0.70 0.48 o 691 0.71 Yes Yes
2018VZ3 O C K 2018-12-04.37962 1.000E-05 05:09:56.790 1.500E-01 0.500 F -0.184 0.119 -19° 39' 32.80" 1.000E-01 0.500 F -0.187 0.206 o 691 0.54 Yes No
2018VS O C K 2018-12-04.38465 1.000E-05 05:23:26.180 1.500E-01 0.500 F -0.093 0.280 -27° 08' 06.70" 1.000E-01 0.500 F 0.107 0.514 20.6 R 0.70 -0.44 o 691 1.29 Yes Yes
2009BJ58 O C K 2018-12-04.39293 1.000E-05 05:30:24.750 1.500E-01 0.500 F -0.145 -0.203 +03° 00' 54.40" 1.000E-01 0.500 F 0.163 -0.278 22.1 R 0.70 0.99 o 691 0.70 Yes Yes
Hathor O C 2018-12-04.39892 1.000E-05 08:04:24.310 1.500E-01 0.500 F 0.010 -0.482 +02° 11' 54.10" 1.000E-01 0.500 F 0.032 0.333 20.2 V 0.70 0.43 o 691 1.17 Yes Yes
2016KE O C K 2018-12-04.40559 1.000E-05 07:49:52.660 1.500E-01 0.500 F 0.042 -0.291 +09° 07' 45.10" 1.000E-01 0.500 F 0.133 -0.247 22.9 R 0.70 1.06 o 691 0.77 Yes Yes
Hathor O C 2018-12-04.41066 1.000E-05 08:04:23.520 1.500E-01 0.500 F 0.010 0.289 +02° 11' 33.80" 1.000E-01 0.500 F 0.032 -0.037 19.8 V 0.70 0.03 o 691 0.58 Yes Yes
2016KE O C K 2018-12-04.41700 1.000E-05 07:49:52.730 1.500E-01 0.500 F 0.042 0.191 +09° 07' 50.30" 1.000E-01 0.500 F 0.133 -0.238 22.3 R 0.70 0.46 o 691 0.61 Yes Yes
Hathor O C 2018-12-04.42208 1.000E-05 08:04:22.660 1.500E-01 0.500 F 0.010 -0.293 +02° 11' 14.70" 1.000E-01 0.500 F 0.032 0.259 20.0 V 0.70 0.23 o 691 0.78 Yes Yes
2016KE O C K 2018-12-04.42845 1.000E-05 07:49:52.750 1.500E-01 0.500 F 0.042 -0.062 +09° 07' 56.40" 1.000E-01 0.500 F 0.133 0.656 22.6 R 0.70 0.76 o 691 1.33 Yes Yes
2018MW6 O C H 2018-12-04.43447 1.000E-05 08:42:56.830 1.500E-01 0.500 F 0.184 -0.457 +05° 11' 26.10" 1.000E-01 0.500 F 0.245 -0.036 20.5 R 0.70 -0.08 o 691 0.94 Yes Yes
2002AD2 O C K 2018-12-04.43664 1.000E-05 10:08:25.330 1.500E-01 0.500 F 0.412 0.248 -24° 33' 39.90" 1.000E-01 0.500 F 0.119 -0.399 20.9 R 0.70 0.06 o 691 0.96 Yes Yes
2015XC1 O C K 2018-12-04.44583 1.000E-05 09:25:45.890 1.500E-01 0.500 F 0.000 0.058 -07° 56' 46.70" 1.000E-01 0.500 F 0.104 0.052 o 691 0.16 Yes No
2018MW6 O C H 2018-12-04.45004 1.000E-05 08:42:55.260 1.500E-01 0.500 F 0.184 -0.364 +05° 11' 19.60" 1.000E-01 0.500 F 0.245 -0.118 20.7 R 0.70 0.12 o 691 0.78 Yes Yes
2002AD2 O C K 2018-12-04.45206 1.000E-05 10:08:28.610 1.500E-01 0.500 F 0.412 -0.116 -24° 33' 12.30" 1.000E-01 0.500 F 0.119 -0.521 20.9 R 0.70 0.06 o 691 1.17 Yes Yes
2015XC1 O C K 2018-12-04.46104 1.000E-05 09:25:48.180 1.500E-01 0.500 F 0.000 0.007 -07° 57' 16.00" 1.000E-01 0.500 F 0.104 0.061 o 691 0.12 Yes No
2018MW6 O C H 2018-12-04.46526 1.000E-05 08:42:53.770 1.500E-01 0.500 F 0.184 0.416 +05° 11' 13.00" 1.000E-01 0.500 F 0.245 -0.441 20.1 R 0.70 -0.48 o 691 1.23 Yes Yes
2002AD2 O C K 2018-12-04.46727 1.000E-05 10:08:31.890 1.500E-01 0.500 F 0.412 0.197 -24° 32' 45.00" 1.000E-01 0.500 F 0.119 -0.638 20.9 R 0.70 0.06 o 691 1.39 Yes Yes
2015XC1 O C K 2018-12-04.47627 1.000E-05 09:25:50.490 1.500E-01 0.500 F 0.000 0.225 -07° 57' 46.50" 1.000E-01 0.500 F 0.104 -1.097 o 691 2.25 Yes No
2015YU7 O C H 2018-12-04.50904 1.000E-05 10:31:26.660 1.500E-01 0.500 F 0.116 0.575 +03° 36' 49.00" 1.000E-01 0.500 F 0.114 -0.180 19.4 R 0.70 -0.04 o 691 1.22 Yes Yes
2015YU7 O C H 2018-12-04.51913 1.000E-05 10:31:22.030 1.500E-01 0.500 F 0.116 -0.291 +03° 36' 40.90" 1.000E-01 0.500 F 0.114 -0.192 18.9 R 0.70 -0.54 o 691 0.70 Yes Yes
2015YU7 O C H 2018-12-04.52904 1.000E-05 10:31:17.520 1.500E-01 0.500 F 0.116 -0.519 +03° 36' 33.20" 1.000E-01 0.500 F 0.114 0.067 o 691 1.06 Yes No
2018XA O C K 2018-12-05.16959 1.000E-05 04:05:45.230 1.500E-01 0.500 F -0.151 0.006 +22° 00' 33.90" 1.000E-01 0.500 F 0.111 -0.029 o 691 0.06 Yes No
2018XA O C K 2018-12-05.17344 1.000E-05 04:05:49.390 1.500E-01 0.500 F -0.151 -0.681 +22° 00' 21.50" 1.000E-01 0.500 F 0.111 0.245 17.8 R 0.70 0.43 o 691 1.45 Yes Yes
2018XA O C K 2018-12-05.17728 1.000E-05 04:05:53.590 1.500E-01 0.500 F -0.151 -0.528 +22° 00' 08.70" 1.000E-01 0.500 F 0.111 0.104 17.2 R 0.70 -0.18 o 691 1.08 Yes Yes
2018VZ8 O C K 2018-12-05.27290 1.000E-05 03:45:59.510 1.500E-01 0.500 F -0.158 0.112 +25° 51' 36.80" 1.000E-01 0.500 F 0.256 0.296 o 691 0.65 Yes No
2018VZ8 O C K 2018-12-05.28048 1.000E-05 03:45:59.390 1.500E-01 0.500 F -0.158 0.002 +25° 51' 46.80" 1.000E-01 0.500 F 0.256 -0.162 21.3 R 0.70 0.30 o 691 0.33 Yes Yes
2018VZ8 O C K 2018-12-05.28805 1.000E-05 03:45:59.320 1.500E-01 0.500 F -0.158 0.558 +25° 51' 56.50" 1.000E-01 0.500 F 0.256 -0.882 21.2 R 0.70 0.20 o 691 2.16 Yes Yes
2018XU O C K 2018-12-05.36211 1.000E-05 04:09:16.290 1.500E-01 0.500 F -0.317 0.470 +12° 16' 50.60" 1.000E-01 0.500 F 0.148 0.201 o 691 1.09 Yes No
2018XU O C K 2018-12-05.37039 1.000E-05 04:09:15.870 1.500E-01 0.500 F -0.317 -0.185 +12° 16' 59.60" 1.000E-01 0.500 F 0.148 -0.089 21.6 R 0.70 0.66 o 691 0.44 Yes Yes
2018VN3 O C K 2018-12-05.38949 1.000E-05 05:06:01.420 1.500E-01 0.500 F -0.243 0.493 -03° 14' 12.70" 1.000E-01 0.500 F 0.015 0.240 19.1 R 0.70 0.29 o 691 1.10 Yes Yes
2018VN3 O C K 2018-12-05.39372 1.000E-05 05:06:01.550 1.500E-01 0.500 F -0.243 -0.044 -03° 14' 29.80" 1.000E-01 0.500 F 0.015 0.170 19.1 R 0.70 0.29 o 691 0.36 Yes Yes
2018VN3 O C K 2018-12-05.39794 1.000E-05 05:06:01.710 1.500E-01 0.500 F -0.243 -0.138 -03° 14' 47.00" 1.000E-01 0.500 F 0.015 -0.042 19.2 R 0.70 0.39 o 691 0.29 Yes Yes
2007WF55 O C K 2018-12-06.07450 1.000E-05 21:05:23.980 1.500E-01 0.500 F 0.035 0.416 +06° 00' 45.20" 1.000E-01 0.500 F 0.423 -0.122 21.3 R 0.70 0.28 o 691 0.89 Yes Yes
2007WF55 O C K 2018-12-06.08919 1.000E-05 21:05:27.010 1.500E-01 0.500 F 0.035 -0.148 +06° 00' 57.50" 1.000E-01 0.500 F 0.423 -0.317 22.2 R 0.70 1.18 o 691 0.73 Yes Yes
2007WF55 O C K 2018-12-06.10379 1.000E-05 21:05:30.080 1.500E-01 0.500 F 0.038 0.116 +06° 01' 10.40" 1.000E-01 0.500 F 0.450 0.141 o 691 0.38 Yes No
2003NW1 O C K 2018-12-06.12030 1.000E-05 22:03:50.260 1.500E-01 0.500 F 0.012 0.330 +11° 06' 21.70" 1.000E-01 0.500 F 0.159 0.085 o 691 0.69 Yes No
2003NW1 O C K 2018-12-06.12681 1.000E-05 22:03:58.890 1.500E-01 0.500 F 0.012 0.240 +11° 07' 05.10" 1.000E-01 0.500 F 0.159 0.143 o 691 0.56 Yes No
2003NW1 O C K 2018-12-06.13321 1.000E-05 22:04:07.370 1.500E-01 0.500 F 0.012 -0.099 +11° 07' 47.80" 1.000E-01 0.500 F 0.159 0.244 o 691 0.53 Yes No
2018TC3 O C 2018-12-09.09198 1.000E-05 00:07:04.540 1.500E-01 0.500 F -0.114 -0.065 +01° 15' 02.10" 1.000E-01 0.500 F 0.363 0.162 19.2 V 0.70 0.05 o 691 0.35 Yes Yes
2018TC3 O C 2018-12-09.09319 1.000E-05 00:07:04.640 1.500E-01 0.500 F -0.114 -0.272 +01° 15' 07.00" 1.000E-01 0.500 F 0.363 0.070 19.2 V 0.70 0.05 o 691 0.57 Yes Yes
2018TC3 O C 2018-12-09.09439 1.000E-05 00:07:04.770 1.500E-01 0.500 F -0.114 -0.015 +01° 15' 11.80" 1.000E-01 0.500 F 0.363 -0.081 19.1 V 0.70 -0.05 o 691 0.17 Yes Yes
2018TO6 O C K 2018-12-09.09995 1.000E-05 22:56:34.030 1.500E-01 0.500 F -0.098 -0.071 +21° 36' 56.80" 1.000E-01 0.500 F 0.297 0.119 21.7 R 0.70 0.34 o 691 0.28 Yes Yes
2007VD12 O C 2018-12-09.11295 1.000E-05 23:01:12.310 1.500E-01 0.500 F -0.145 -0.182 -06° 46' 36.90" 1.000E-01 0.500 F 0.269 -0.448 19.9 V 0.70 0.31 o 691 0.97 Yes Yes
2018TO6 O C K 2018-12-09.11748 1.000E-05 22:56:38.230 1.500E-01 0.500 F -0.098 0.227 +21° 37' 14.60" 1.000E-01 0.500 F 0.297 0.020 o 691 0.46 Yes No
2007VD12 O C 2018-12-09.13031 1.000E-05 23:01:07.770 1.500E-01 0.500 F -0.145 -0.507 -06° 45' 18.80" 1.000E-01 0.500 F 0.269 -0.007 20.1 V 0.70 0.50 o 691 1.02 Yes Yes
2018TO6 O C K 2018-12-09.13463 1.000E-05 22:56:42.340 1.500E-01 0.500 F -0.098 0.454 +21° 37' 32.30" 1.000E-01 0.500 F 0.297 0.265 o 691 1.07 Yes No
2007VD12 O C 2018-12-09.14742 1.000E-05 23:01:03.350 1.500E-01 0.500 F -0.145 -0.195 -06° 44' 02.30" 1.000E-01 0.500 F 0.269 -0.079 19.7 V 0.70 0.10 o 691 0.42 Yes Yes
2011WM46 O C K 2018-12-09.15130 1.000E-05 00:50:26.080 1.500E-01 0.500 F -0.196 0.002 +15° 02' 04.40" 1.000E-01 0.500 F 0.412 -0.202 20.1 R 0.70 0.27 o 691 0.41 Yes Yes
2011WM46 O C K 2018-12-09.16640 1.000E-05 00:50:30.390 1.500E-01 0.500 F -0.196 0.116 +15° 01' 39.00" 1.000E-01 0.500 F 0.412 -0.691 19.8 R 0.70 -0.03 o 691 1.41 Yes Yes
2018UY O C K 2018-12-09.17225 1.000E-05 01:35:49.780 1.500E-01 0.500 F -0.181 0.486 +08° 51' 48.90" 1.000E-01 0.500 F 0.304 0.327 20.4 R 0.70 -0.18 o 691 1.18 Yes Yes
2011WM46 O C K 2018-12-09.18124 1.000E-05 00:50:34.610 1.500E-01 0.500 F -0.196 -0.015 +15° 01' 15.40" 1.000E-01 0.500 F 0.412 0.216 19.9 R 0.70 0.07 o 691 0.44 Yes Yes
2018UY O C K 2018-12-09.18699 1.000E-05 01:35:47.100 1.500E-01 0.500 F -0.181 -0.075 +08° 51' 37.00" 1.000E-01 0.500 F 0.304 -0.223 21.1 R 0.70 0.52 o 691 0.47 Yes Yes
2010GT7 O C 2018-12-09.19692 1.000E-05 02:28:17.180 1.500E-01 0.500 F -0.152 -0.042 +10° 15' 32.40" 1.000E-01 0.500 F 0.309 -0.077 17.3 V 0.70 -0.07 o 691 0.18 Yes Yes
2018XN O C K 2018-12-09.20405 1.000E-05 03:25:08.780 1.500E-01 0.500 F -0.262 0.273 +17° 14' 09.50" 1.000E-01 0.500 F 0.343 0.138 20.6 R 0.70 0.44 o 691 0.62 Yes Yes
2010GT7 O C 2018-12-09.20916 1.000E-05 02:28:12.170 1.500E-01 0.500 F -0.152 -0.170 +10° 16' 03.00" 1.000E-01 0.500 F 0.309 -0.040 17.3 V 0.70 -0.07 o 691 0.35 Yes Yes
2018VN5 O C K 2018-12-09.21183 1.000E-05 04:08:31.780 1.500E-01 0.500 F -0.094 -0.013 +04° 40' 44.80" 1.000E-01 0.500 F 0.162 -0.017 o 691 0.04 Yes No
2018XN O C K 2018-12-09.21608 1.000E-05 03:25:06.520 1.500E-01 0.500 F -0.262 0.138 +17° 14' 07.80" 1.000E-01 0.500 F 0.343 -0.125 20.7 R 0.70 0.54 o 691 0.37 Yes Yes
2010GT7 O C 2018-12-09.22095 1.000E-05 02:28:07.350 1.500E-01 0.500 F -0.152 -0.148 +10° 16' 32.50" 1.000E-01 0.500 F 0.309 0.041 17.3 V 0.70 -0.07 o 691 0.31 Yes Yes
2018VN5 O C K 2018-12-09.22367 1.000E-05 04:08:31.230 1.500E-01 0.500 F -0.094 -0.272 +04° 40' 26.20" 1.000E-01 0.500 F 0.162 0.138 21.0 R 0.70 0.26 o 691 0.61 Yes Yes
2018XN O C K 2018-12-09.22793 1.000E-05 03:25:04.280 1.500E-01 0.500 F -0.262 -0.133 +17° 14' 06.40" 1.000E-01 0.500 F 0.343 -0.006 20.5 R 0.70 0.34 o 691 0.27 Yes Yes
2018VG10 O C K 2018-12-09.23343 1.000E-05 02:12:46.140 1.500E-01 0.500 F -0.157 -0.547 +08° 20' 45.90" 1.000E-01 0.500 F 0.250 -0.228 20.5 R 0.70 -0.49 o 691 1.24 Yes Yes
2018VZ1 O C K 2018-12-09.24010 1.000E-05 02:50:00.830 1.500E-01 0.500 F -0.327 -0.029 +21° 26' 47.30" 1.000E-01 0.500 F 0.350 0.106 21.1 R 0.70 0.40 o 691 0.23 Yes Yes
2018VQ3 O C K 2018-12-09.24520 1.000E-05 02:00:02.520 1.500E-01 0.500 F -0.517 -0.081 -15° 49' 50.10" 1.000E-01 0.500 F 0.133 0.315 20.8 R 0.70 0.04 o 691 0.66 Yes Yes
2018VG10 O C K 2018-12-09.24934 1.000E-05 02:12:47.150 1.500E-01 0.500 F -0.157 0.246 +08° 21' 24.10" 1.000E-01 0.500 F 0.250 -0.093 20.7 R 0.70 -0.29 o 691 0.55 Yes Yes
2018VZ1 O C K 2018-12-09.25591 1.000E-05 02:50:00.100 1.500E-01 0.500 F -0.327 0.054 +21° 27' 14.50" 1.000E-01 0.500 F 0.350 -0.212 20.8 R 0.70 0.10 o 691 0.46 Yes Yes
2018VQ3 O C K 2018-12-09.26081 1.000E-05 01:59:59.840 1.500E-01 0.500 F -0.517 0.234 -15° 49' 53.50" 1.000E-01 0.500 F 0.133 -0.010 20.9 R 0.70 0.14 o 691 0.48 Yes Yes
2018VG10 O C K 2018-12-09.26500 1.000E-05 02:12:48.070 1.500E-01 0.500 F -0.157 -0.133 +08° 22' 01.60" 1.000E-01 0.500 F 0.250 -0.026 21.1 R 0.70 0.10 o 691 0.28 Yes Yes
2018VZ1 O C K 2018-12-09.27157 1.000E-05 02:49:59.360 1.500E-01 0.500 F -0.327 -0.147 +21° 27' 42.00" 1.000E-01 0.500 F 0.350 0.088 21.1 R 0.70 0.40 o 691 0.36 Yes Yes
2018VQ3 O C K 2018-12-09.27649 1.000E-05 01:59:57.200 1.500E-01 0.500 F -0.517 1.219 -15° 49' 55.20" 1.000E-01 0.500 F 0.133 1.330 o 691 3.52 No No
2017KE35 O C 2018-12-09.28517 1.000E-05 02:58:49.220 1.500E-01 0.500 F -0.325 -0.390 +08° 24' 59.10" 1.000E-01 0.500 F 0.309 -0.105 20.2 V 0.70 -0.22 o 691 0.81 Yes Yes
1998YF10 O C H 2018-12-09.28669 1.000E-05 03:09:00.680 1.500E-01 0.500 F -0.386 0.285 -03° 13' 18.40" 1.000E-01 0.500 F 0.230 0.130 18.8 R 0.70 -0.27 o 691 0.63 Yes Yes
2017KE35 O C 2018-12-09.29795 1.000E-05 02:58:47.760 1.500E-01 0.500 F -0.325 -0.528 +08° 25' 14.30" 1.000E-01 0.500 F 0.309 0.207 20.2 V 0.70 -0.22 o 691 1.14 Yes Yes
1998YF10 O C H 2018-12-09.29937 1.000E-05 03:09:00.350 1.500E-01 0.500 F -0.386 0.152 -03° 12' 19.40" 1.000E-01 0.500 F 0.230 0.271 18.6 R 0.70 -0.47 o 691 0.63 Yes Yes
2017KE35 O C 2018-12-09.31047 1.000E-05 02:58:46.360 1.500E-01 0.500 F -0.325 -0.253 +08° 25' 28.60" 1.000E-01 0.500 F 0.309 -0.072 20.3 V 0.70 -0.12 o 691 0.53 Yes Yes
1998YF10 O C H 2018-12-09.31191 1.000E-05 03:09:00.030 1.500E-01 0.500 F -0.386 0.024 -03° 11' 21.90" 1.000E-01 0.500 F 0.230 -0.435 18.6 R 0.70 -0.48 o 691 0.88 Yes Yes
2018XA O C 2018-12-09.32307 1.000E-05 04:51:11.430 1.500E-01 0.500 F -0.225 -0.109 +19° 16' 49.30" 1.000E-01 0.500 F 0.232 -0.010 18.8 V 0.70 -0.02 o 691 0.22 Yes Yes
2018VJ5 O C K 2018-12-09.32702 1.000E-05 05:10:01.530 1.500E-01 0.500 F -0.073 -0.168 +03° 24' 48.40" 1.000E-01 0.500 F 0.094 -0.244 21.2 R 0.70 0.03 o 691 0.61 Yes Yes
2015ME54 O C K 2018-12-09.33255 1.000E-05 04:58:53.700 1.500E-01 0.500 F -0.003 -0.138 +09° 30' 46.50" 1.000E-01 0.500 F 0.080 -0.059 o 691 0.30 Yes No
2018XA O C 2018-12-09.33664 1.000E-05 04:51:15.930 1.500E-01 0.500 F -0.225 -0.179 +19° 16' 28.10" 1.000E-01 0.500 F 0.232 -0.067 19.2 V 0.70 0.37 o 691 0.38 Yes Yes
2018VJ5 O C K 2018-12-09.34034 1.000E-05 05:10:02.290 1.500E-01 0.500 F -0.073 -0.039 +03° 24' 25.70" 1.000E-01 0.500 F 0.094 0.306 21.5 R 0.70 0.33 o 691 0.64 Yes Yes
2015ME54 O C K 2018-12-09.34586 1.000E-05 04:58:52.080 1.500E-01 0.500 F -0.003 -0.324 +09° 30' 54.60" 1.000E-01 0.500 F 0.080 0.230 21.0 R 0.70 0.38 o 691 0.80 Yes Yes
2018XA O C 2018-12-09.34992 1.000E-05 04:51:20.340 1.500E-01 0.500 F -0.225 -0.139 +19° 16' 07.30" 1.000E-01 0.500 F 0.232 -0.028 19.4 V 0.70 0.57 o 691 0.28 Yes Yes
2018VJ5 O C K 2018-12-09.35358 1.000E-05 05:10:03.070 1.500E-01 0.500 F -0.073 0.422 +03° 24' 02.20" 1.000E-01 0.500 F 0.094 -0.092 21.0 R 0.70 -0.17 o 691 0.89 Yes Yes
2015ME54 O C K 2018-12-09.35911 1.000E-05 04:58:50.510 1.500E-01 0.500 F -0.003 0.104 +09° 31' 02.00" 1.000E-01 0.500 F 0.080 -0.137 21.1 R 0.70 0.48 o 691 0.34 Yes Yes
2018VU6 O C K 2018-12-09.38445 1.000E-05 05:24:02.920 1.500E-01 0.500 F -0.177 0.636 -08° 58' 19.80" 1.000E-01 0.500 F 0.105 -0.348 19.9 R 0.70 -0.62 o 691 1.64 Yes Yes
2018VB9 O C H 2018-12-09.38805 1.000E-05 05:52:28.290 1.500E-01 0.500 F -0.193 0.571 -19° 21' 03.30" 1.000E-01 0.500 F -0.169 0.088 19.3 R 0.70 0.42 o 691 1.16 Yes Yes
2018VU6 O C K 2018-12-09.39602 1.000E-05 05:24:07.950 1.500E-01 0.500 F -0.177 -0.366 -08° 58' 44.80" 1.000E-01 0.500 F 0.105 -0.119 19.5 R 0.70 -1.02 o 691 0.84 Yes Yes
2018VB9 O C H 2018-12-09.39955 1.000E-05 05:52:28.270 1.500E-01 0.500 F -0.193 -0.100 -19° 20' 46.00" 1.000E-01 0.500 F -0.169 0.130 19.3 R 0.70 0.42 o 691 0.33 Yes Yes
2018VU6 O C K 2018-12-09.40735 1.000E-05 05:24:12.960 1.500E-01 0.500 F -0.177 -0.238 -08° 59' 09.00" 1.000E-01 0.500 F 0.105 0.285 o 691 0.85 Yes No
2018VB9 O C H 2018-12-09.41086 1.000E-05 05:52:28.330 1.500E-01 0.500 F -0.193 0.333 -19° 20' 28.90" 1.000E-01 0.500 F -0.169 0.216 19.3 R 0.70 0.42 o 691 0.80 Yes Yes
2018VP9 O C K 2018-12-09.47090 1.000E-05 08:43:59.070 1.500E-01 0.500 F 0.227 0.088 -23° 51' 59.50" 1.000E-01 0.500 F -0.029 -0.496 20.6 R 0.70 -0.37 o 691 1.13 Yes Yes
2004VB17 O C K 2018-12-09.47774 1.000E-05 09:04:14.140 1.500E-01 0.500 F 0.282 0.056 -25° 09' 23.40" 1.000E-01 0.500 F -0.136 0.244 20.2 R 0.70 -0.29 o 691 0.51 Yes Yes
2006OH15 O C K 2018-12-09.48305 1.000E-05 10:41:31.860 1.500E-01 0.500 F 0.093 -0.424 -01° 10' 37.70" 1.000E-01 0.500 F 0.161 0.342 20.7 R 0.70 0.09 o 691 1.09 Yes Yes
2018VP9 O C K 2018-12-09.48848 1.000E-05 08:43:58.270 1.500E-01 0.500 F 0.227 0.541 -23° 52' 58.00" 1.000E-01 0.500 F -0.029 0.095 o 691 1.11 Yes No
2004VB17 O C K 2018-12-09.49533 1.000E-05 09:04:14.860 1.500E-01 0.500 F 0.282 0.157 -25° 10' 10.10" 1.000E-01 0.500 F -0.136 0.148 19.9 R 0.70 -0.59 o 691 0.44 Yes Yes
2006OH15 O C K 2018-12-09.50048 1.000E-05 10:41:35.020 1.500E-01 0.500 F 0.093 0.178 -01° 10' 23.40" 1.000E-01 0.500 F 0.161 -0.043 20.9 R 0.70 0.29 o 691 0.37 Yes Yes
2006OH15 O C K 2018-12-09.51789 1.000E-05 10:41:38.140 1.500E-01 0.500 F 0.093 0.249 -01° 10' 08.50" 1.000E-01 0.500 F 0.161 0.173 20.8 R 0.70 0.19 o 691 0.61 Yes Yes
2018RJ7 O C K 2018-12-09.52686 1.000E-05 11:37:20.860 1.500E-01 0.500 F 0.178 -0.232 -08° 28' 10.10" 1.000E-01 0.500 F -0.020 -0.323 22.1 R 0.70 0.95 o 691 0.80 Yes Yes
2018RJ7 O C K 2018-12-09.53498 1.000E-05 11:37:21.780 1.500E-01 0.500 F 0.178 -0.395 -08° 28' 03.90" 1.000E-01 0.500 F -0.020 0.023 21.5 R 0.70 0.35 o 691 0.79 Yes Yes
2018RJ7 O C K 2018-12-09.54309 1.000E-05 11:37:22.740 1.500E-01 0.500 F 0.178 0.075 -08° 27' 57.90" 1.000E-01 0.500 F -0.020 0.167 21.5 R 0.70 0.35 o 691 0.37 Yes Yes
2007WF55 O C K 2018-12-10.06948 1.000E-05 21:19:45.180 1.500E-01 0.500 F -0.045 0.184 +06° 58' 28.70" 1.000E-01 0.500 F 0.295 0.128 22.1 R 0.70 1.10 o 691 0.46 Yes Yes
2007WF55 O C K 2018-12-10.07897 1.000E-05 21:19:47.220 1.500E-01 0.500 F -0.045 -0.151 +06° 58' 37.00" 1.000E-01 0.500 F 0.295 0.108 21.4 R 0.70 0.40 o 691 0.38 Yes Yes
2007WF55 O C K 2018-12-10.08703 1.000E-05 21:19:48.980 1.500E-01 0.500 F -0.045 -0.041 +06° 58' 44.10" 1.000E-01 0.500 F 0.295 0.143 21.1 R 0.70 0.10 o 691 0.31 Yes Yes
2018VT3 O C K 2018-12-10.10093 1.000E-05 22:53:23.630 1.500E-01 0.500 F -0.201 -0.053 +17° 08' 58.80" 1.000E-01 0.500 F 0.329 0.248 21.1 R 0.70 0.15 o 691 0.52 Yes Yes
2018TO6 O C K 2018-12-10.10737 1.000E-05 23:00:41.520 1.500E-01 0.500 F -0.111 0.017 +21° 54' 13.20" 1.000E-01 0.500 F 0.196 0.769 21.3 R 0.70 -0.07 o 691 1.55 Yes Yes
2018PT21 O C K 2018-12-10.11856 1.000E-05 21:58:04.330 1.500E-01 0.500 F -0.063 1.248 +00° 49' 47.00" 1.000E-01 0.500 F 0.286 -0.069 o 691 2.70 Yes No
2018VT3 O C K 2018-12-10.12528 1.000E-05 22:53:26.370 1.500E-01 0.500 F -0.201 0.028 +17° 09' 52.80" 1.000E-01 0.500 F 0.329 0.006 20.6 R 0.70 -0.35 o 691 0.06 Yes Yes
2018TO6 O C K 2018-12-10.13171 1.000E-05 23:00:47.410 1.500E-01 0.500 F -0.111 0.033 +21° 54' 37.00" 1.000E-01 0.500 F 0.196 -0.035 21.6 R 0.70 0.23 o 691 0.10 Yes Yes
2018PT21 O C K 2018-12-10.14287 1.000E-05 21:58:07.700 1.500E-01 0.500 F -0.063 -0.620 +00° 50' 20.50" 1.000E-01 0.500 F 0.286 -0.461 o 691 1.67 Yes No
2018VT3 O C K 2018-12-10.14959 1.000E-05 22:53:29.110 1.500E-01 0.500 F -0.161 0.000 +17° 10' 46.80" 1.000E-01 0.500 F 0.328 -0.070 20.8 R 0.70 -0.16 o 691 0.14 Yes Yes
2018TO6 O C K 2018-12-10.15603 1.000E-05 23:00:53.290 1.500E-01 0.500 F -0.111 -0.203 +21° 55' 01.50" 1.000E-01 0.500 F 0.196 -0.012 21.7 R 0.70 0.33 o 691 0.41 Yes Yes

[1-200] [201-400] [401-600] [601-800] [801-1000] [1001-1200] [1201-1400] [1401-1600] [1601-1800] [1801-2000] [2001-2200] [2201-2400] [2401-2600] [2601-2800] [2801-3000] [3001-3200] [3201-3400] [3401-3600] [3601-3800] [3801-4000] [4001-4200] [4201-4400] [4401-4600] [4601-4800] [4801-5000] [5001-5200] [5201-5400] [5401-5600] [5601-5800] [5801-6000] [6001-6200] [6201-6400] [6401-6600] [6601-6800] [6801-7000] [7001-7200] [7201-7400] [7401-7600] [7601-7800] [7801-8000] [8001-8200] [8201-8400] [8401-8600] [8601-8800] [8801-9000] [9001-9200] [9201-9400] [9401-9600] [9601-9800] [9801-10000] [10001-10200] [10201-10400] [10401-10600] [10601-10800] [10801-11000] [11001-11200] [11201-11400] [11401-11600] [11601-11800] [11801-12000] [12001-12200] [12201-12400] [12401-12600] [12601-12800] [12801-13000] [13001-13200] [13201-13400] [13401-13600] [13601-13800] [13801-14000] [14001-14200] [14201-14400] [14401-14600] [14601-14800] [14801-15000] [15001-15200] [15201-15400] [15401-15600] [15601-15800] [15801-16000] [16001-16200] [16201-16400] [16401-16600] [16601-16800] [16801-17000] [17001-17200] [17201-17400] [17401-17600] [17601-17800] [17801-18000] [18001-18200] [18201-18400] [18401-18600] [18601-18800] [18801-19000] [19001-19200] [19201-19400] [19401-19600] [19601-19800] [19801-20000] [20001-20200] [20201-20400] [20401-20600] [20601-20800] [20801-21000] [21001-21200] [21201-21400] [21401-21600] [21601-21800] [21801-22000] [22001-22200] [22201-22400] [22401-22600] [22601-22800] [22801-23000] [23001-23200] [23201-23400] [23401-23600] [23601-23800] [23801-24000] [24001-24200] [24201-24400] [24401-24600] [24601-24800] [24801-25000] [25001-25200] [25201-25400] [25401-25600] [25601-25800] [25801-26000] [26001-26200] [26201-26400] [26401-26600] [26601-26800] [26801-27000] [27001-27200] [27201-27400] [27401-27600] [27601-27800] [27801-28000] [28001-28200] [28201-28400] [28401-28600] [28601-28800] [28801-29000] [29001-29200] [29201-29400] [29401-29600] [29601-29800] [29801-30000] [30001-30200] [30201-30400] [30401-30600] [30601-30800] [30801-31000] [31001-31200] [31201-31400] [31401-31600] [31601-31800] [31801-32000] [32001-32200] [32201-32400] [32401-32600] [32601-32800] [32801-33000] [33001-33200] [33201-33400] [33401-33600] [33601-33800] [33801-34000] [34001-34200] [34201-34400] [34401-34600] [34601-34800] [34801-35000] [35001-35200] [35201-35400] [35401-35600] [35601-35800] [35801-36000] [36001-36200] [36201-36400] [36401-36600] [36601-36800] [36801-37000] [37001-37200] [37201-37400] [37401-37600] [37601-37800] [37801-38000] [38001-38200] [38201-38400] [38401-38600] [38601-38800] [38801-39000] [39001-39200] [39201-39400] [39401-39600] [39601-39800] [39801-40000] [40001-40200] [40201-40400] [40401-40600] [40601-40800] [40801-41000] [41001-41200] [41201-41400] [41401-41600] [41601-41800] [41801-42000] [42001-42200] [42201-42400] [42401-42600] [42601-42800] [42801-43000] [43001-43200] [43201-43400] [43401-43600] [43601-43800] [43801-44000] [44001-44200] [44201-44400] [44401-44600] [44601-44800] [44801-45000] [45001-45200] [45201-45400] [45401-45600] [45601-45800] [45801-46000] [46001-46200] [46201-46400] [46401-46600] [46601-46800] [46801-47000] [47001-47200] [47201-47400] [47401-47600] [47601-47800] [47801-48000] [48001-48200] [48201-48400] [48401-48600] [48601-48800] [48801-49000] [49001-49200] [49201-49400] [49401-49600] [49601-49800] [49801-50000] [50001-50200] [50201-50388]